Aeroporto :
LOGIN :

Iscrizione | Disclaimer

   EN    FR    IT 

 










Sommario :    VFR   VFR Marginale   IFR   IFR Intensivo   IFR Molto Intensivo
Visibilità : 
Base nubi : 
>= 8 km
>= 3000ft
5 / 8 km
1000 / 3000 ft
1500m / 5 km
500 / 1000 ft
800 / 1500m
200 / 500 ft
< 800m
< 200 ft
Simboli :   Temporali  Nebbia  Neve Forte  Precipitazioni Forti  Vento > 20 kt
SIGMETs :   Varie  Temporali  Ghiacco  Turbolenza  Onda orograficha  Ceneri Vulcaniche







- Altitudine del aeroporto : 375 ft
- Codice IATA : MST


EHBK - Maastricht Aachen

ULTIMO METAR :
  • 230925Z AUTO 21005KT 140V290 9999 NSC 26/15 Q1018 NOSIG

METARs OBSOLETI :
  • 230855Z AUTO 23004KT 160V280 9999 NSC 24/15 Q1018 NOSIG
  • 230825Z AUTO 20004KT 140V260 9999 NSC 23/15 Q1018 NOSIG
  • 230755Z AUTO 19005KT 150V230 9999 NSC 23/15 Q1018 NOSIG
  • 230725Z AUTO 18004KT 150V230 9999 NSC 22/15 Q1017 NOSIG
  • 230655Z AUTO 20004KT 160V230 9999 NSC 21/15 Q1017 NOSIG

TAF TAF EHBK
Valido dal 23 a 06 ore il 24 a 12 ore UTC


230413Z 2306/2412 21003KT CAVOK
Nessun NOTAM noto per questo aeroporto.



MetMap, La meteo Aeronautica in un colpo d'occhio ! - Copyright ORBIFLY Dicembre 2007 - Disclaimer

ORBIFLY MET'MAP TEAM :

Programmazione e sviluppo : Alexandra Zaïnal
Concezione e sviluppo : Baudouin d'Aumeries
Co-Programmazione e sviluppo : Marc-Olivier Méhu
Supporto tecnico e logistico : Manuel Goepfert
Aiuto per la traduzione : Arnaldo La Scala

Contatto : metmap@orbifly.com




FONTI E CREDITI :

   NOAA